sensor_id;sensor_type;location;lat;lon;timestamp;P1;durP1;ratioP1;P2;durP2;ratioP2
39728;SDS011;25402;42.004;23.088;2023-08-12T00:04:27;10.15;;;3.15;;
39728;SDS011;25402;42.004;23.088;2023-08-12T00:06:54;10.52;;;3.67;;
39728;SDS011;25402;42.004;23.088;2023-08-12T00:09:21;9.90;;;3.33;;
39728;SDS011;25402;42.004;23.088;2023-08-12T00:11:48;4.70;;;3.15;;
39728;SDS011;25402;42.004;23.088;2023-08-12T00:14:15;6.35;;;3.10;;
39728;SDS011;25402;42.004;23.088;2023-08-12T00:16:43;5.32;;;3.40;;
39728;SDS011;25402;42.004;23.088;2023-08-12T00:19:10;9.00;;;2.80;;
39728;SDS011;25402;42.004;23.088;2023-08-12T00:21:38;4.35;;;3.20;;
39728;SDS011;25402;42.004;23.088;2023-08-12T00:24:05;4.85;;;3.30;;
39728;SDS011;25402;42.004;23.088;2023-08-12T00:26:33;12.60;;;3.22;;
39728;SDS011;25402;42.004;23.088;2023-08-12T00:28:59;9.50;;;3.45;;
39728;SDS011;25402;42.004;23.088;2023-08-12T00:31:27;4.53;;;3.30;;
39728;SDS011;25402;42.004;23.088;2023-08-12T00:33:55;7.25;;;3.53;;
39728;SDS011;25402;42.004;23.088;2023-08-12T00:36:22;10.07;;;4.65;;
39728;SDS011;25402;42.004;23.088;2023-08-12T00:38:49;10.65;;;4.03;;
39728;SDS011;25402;42.004;23.088;2023-08-12T00:41:16;7.18;;;3.78;;
39728;SDS011;25402;42.004;23.088;2023-08-12T00:43:43;6.72;;;4.25;;
39728;SDS011;25402;42.004;23.088;2023-08-12T00:46:10;7.53;;;3.75;;
39728;SDS011;25402;42.004;23.088;2023-08-12T00:48:38;7.47;;;4.18;;
39728;SDS011;25402;42.004;23.088;2023-08-12T00:51:06;6.20;;;3.85;;
39728;SDS011;25402;42.004;23.088;2023-08-12T00:53:34;6.53;;;3.65;;
39728;SDS011;25402;42.004;23.088;2023-08-12T00:56:02;9.48;;;4.45;;
39728;SDS011;25402;42.004;23.088;2023-08-12T00:58:30;6.40;;;4.00;;
39728;SDS011;25402;42.004;23.088;2023-08-12T01:00:57;8.02;;;3.53;;
39728;SDS011;25402;42.004;23.088;2023-08-12T01:03:24;5.20;;;4.00;;
39728;SDS011;25402;42.004;23.088;2023-08-12T01:05:52;11.25;;;4.22;;
39728;SDS011;25402;42.004;23.088;2023-08-12T01:08:20;6.80;;;4.25;;
39728;SDS011;25402;42.004;23.088;2023-08-12T01:10:49;8.82;;;3.95;;
39728;SDS011;25402;42.004;23.088;2023-08-12T01:13:26;6.00;;;3.78;;
39728;SDS011;25402;42.004;23.088;2023-08-12T01:15:57;6.03;;;3.88;;
39728;SDS011;25402;42.004;23.088;2023-08-12T01:18:28;5.55;;;3.53;;
39728;SDS011;25402;42.004;23.088;2023-08-12T01:20:55;13.13;;;3.85;;
39728;SDS011;25402;42.004;23.088;2023-08-12T01:23:24;7.80;;;4.00;;
39728;SDS011;25402;42.004;23.088;2023-08-12T01:25:51;9.27;;;3.90;;
39728;SDS011;25402;42.004;23.088;2023-08-12T01:28:18;10.10;;;3.90;;
39728;SDS011;25402;42.004;23.088;2023-08-12T01:30:47;10.02;;;3.90;;
39728;SDS011;25402;42.004;23.088;2023-08-12T01:33:21;7.10;;;3.95;;
39728;SDS011;25402;42.004;23.088;2023-08-12T01:35:54;8.75;;;3.70;;
39728;SDS011;25402;42.004;23.088;2023-08-12T01:38:28;6.55;;;4.40;;
39728;SDS011;25402;42.004;23.088;2023-08-12T01:40:59;11.13;;;4.18;;
39728;SDS011;25402;42.004;23.088;2023-08-12T01:43:27;14.13;;;4.18;;
39728;SDS011;25402;42.004;23.088;2023-08-12T01:45:54;6.85;;;4.47;;
39728;SDS011;25402;42.004;23.088;2023-08-12T01:48:22;7.53;;;4.22;;
39728;SDS011;25402;42.004;23.088;2023-08-12T01:50:49;8.82;;;3.88;;
39728;SDS011;25402;42.004;23.088;2023-08-12T01:53:16;5.25;;;3.97;;
39728;SDS011;25402;42.004;23.088;2023-08-12T01:55:44;6.25;;;3.95;;
39728;SDS011;25402;42.004;23.088;2023-08-12T01:58:12;9.30;;;4.47;;
39728;SDS011;25402;42.004;23.088;2023-08-12T02:00:39;5.13;;;4.00;;
39728;SDS011;25402;42.004;23.088;2023-08-12T02:03:05;11.50;;;4.82;;
39728;SDS011;25402;42.004;23.088;2023-08-12T02:05:33;5.63;;;4.22;;
39728;SDS011;25402;42.004;23.088;2023-08-12T02:08:02;6.80;;;4.22;;
39728;SDS011;25402;42.004;23.088;2023-08-12T02:10:29;9.20;;;4.47;;
39728;SDS011;25402;42.004;23.088;2023-08-12T02:12:58;8.70;;;4.35;;
39728;SDS011;25402;42.004;23.088;2023-08-12T02:15:25;11.50;;;4.60;;
39728;SDS011;25402;42.004;23.088;2023-08-12T02:17:52;7.20;;;4.93;;
39728;SDS011;25402;42.004;23.088;2023-08-12T02:20:19;9.35;;;4.30;;
39728;SDS011;25402;42.004;23.088;2023-08-12T02:22:46;9.70;;;4.82;;
39728;SDS011;25402;42.004;23.088;2023-08-12T02:25:13;9.15;;;4.80;;
39728;SDS011;25402;42.004;23.088;2023-08-12T02:27:40;12.55;;;4.90;;
39728;SDS011;25402;42.004;23.088;2023-08-12T02:30:09;7.85;;;5.22;;
39728;SDS011;25402;42.004;23.088;2023-08-12T02:32:37;12.65;;;5.18;;
39728;SDS011;25402;42.004;23.088;2023-08-12T02:35:04;19.05;;;5.05;;
39728;SDS011;25402;42.004;23.088;2023-08-12T02:37:31;8.15;;;4.80;;
39728;SDS011;25402;42.004;23.088;2023-08-12T02:39:58;8.07;;;4.90;;
39728;SDS011;25402;42.004;23.088;2023-08-12T02:42:25;10.88;;;4.85;;
39728;SDS011;25402;42.004;23.088;2023-08-12T02:44:52;10.30;;;5.00;;
39728;SDS011;25402;42.004;23.088;2023-08-12T02:47:20;8.77;;;4.35;;
39728;SDS011;25402;42.004;23.088;2023-08-12T02:49:47;8.45;;;5.03;;
39728;SDS011;25402;42.004;23.088;2023-08-12T02:52:14;10.13;;;4.75;;
39728;SDS011;25402;42.004;23.088;2023-08-12T02:54:42;12.23;;;6.15;;
39728;SDS011;25402;42.004;23.088;2023-08-12T02:57:09;24.73;;;5.82;;
39728;SDS011;25402;42.004;23.088;2023-08-12T02:59:36;22.05;;;8.52;;
39728;SDS011;25402;42.004;23.088;2023-08-12T03:02:03;36.70;;;12.02;;
39728;SDS011;25402;42.004;23.088;2023-08-12T03:04:31;16.90;;;5.75;;
39728;SDS011;25402;42.004;23.088;2023-08-12T03:06:58;18.48;;;4.90;;
39728;SDS011;25402;42.004;23.088;2023-08-12T03:09:25;13.15;;;5.28;;
39728;SDS011;25402;42.004;23.088;2023-08-12T03:11:52;10.88;;;4.88;;
39728;SDS011;25402;42.004;23.088;2023-08-12T03:14:19;17.98;;;5.88;;
39728;SDS011;25402;42.004;23.088;2023-08-12T03:16:46;11.07;;;5.60;;
39728;SDS011;25402;42.004;23.088;2023-08-12T03:19:13;12.10;;;4.80;;
39728;SDS011;25402;42.004;23.088;2023-08-12T03:21:42;28.98;;;15.27;;
39728;SDS011;25402;42.004;23.088;2023-08-12T03:24:09;44.80;;;21.35;;
39728;SDS011;25402;42.004;23.088;2023-08-12T03:26:36;17.92;;;8.13;;
39728;SDS011;25402;42.004;23.088;2023-08-12T03:29:03;18.42;;;7.80;;
39728;SDS011;25402;42.004;23.088;2023-08-12T03:31:30;25.15;;;7.70;;
39728;SDS011;25402;42.004;23.088;2023-08-12T03:33:57;20.98;;;6.10;;
39728;SDS011;25402;42.004;23.088;2023-08-12T03:36:24;17.75;;;4.80;;
39728;SDS011;25402;42.004;23.088;2023-08-12T03:38:52;15.65;;;4.40;;
39728;SDS011;25402;42.004;23.088;2023-08-12T03:41:19;15.10;;;4.38;;
39728;SDS011;25402;42.004;23.088;2023-08-12T03:43:46;34.35;;;5.05;;
39728;SDS011;25402;42.004;23.088;2023-08-12T03:46:13;13.05;;;3.90;;
39728;SDS011;25402;42.004;23.088;2023-08-12T03:48:40;18.17;;;5.25;;
39728;SDS011;25402;42.004;23.088;2023-08-12T03:51:07;16.05;;;4.10;;
39728;SDS011;25402;42.004;23.088;2023-08-12T03:53:34;16.25;;;4.38;;
39728;SDS011;25402;42.004;23.088;2023-08-12T03:56:03;16.25;;;3.97;;
39728;SDS011;25402;42.004;23.088;2023-08-12T03:58:30;13.38;;;4.30;;
39728;SDS011;25402;42.004;23.088;2023-08-12T04:00:57;14.07;;;4.20;;
39728;SDS011;25402;42.004;23.088;2023-08-12T04:03:24;13.23;;;4.40;;
39728;SDS011;25402;42.004;23.088;2023-08-12T04:05:51;11.05;;;5.03;;
39728;SDS011;25402;42.004;23.088;2023-08-12T04:08:19;16.02;;;4.13;;
39728;SDS011;25402;42.004;23.088;2023-08-12T04:10:47;18.55;;;4.70;;
39728;SDS011;25402;42.004;23.088;2023-08-12T04:13:16;16.38;;;5.10;;
39728;SDS011;25402;42.004;23.088;2023-08-12T04:15:47;18.80;;;5.10;;
39728;SDS011;25402;42.004;23.088;2023-08-12T04:18:15;18.83;;;5.05;;
39728;SDS011;25402;42.004;23.088;2023-08-12T04:20:42;25.40;;;5.20;;
39728;SDS011;25402;42.004;23.088;2023-08-12T04:23:09;20.60;;;6.53;;
39728;SDS011;25402;42.004;23.088;2023-08-12T04:25:36;18.90;;;6.38;;
39728;SDS011;25402;42.004;23.088;2023-08-12T04:28:03;37.08;;;6.53;;
39728;SDS011;25402;42.004;23.088;2023-08-12T04:30:32;17.90;;;5.63;;
39728;SDS011;25402;42.004;23.088;2023-08-12T04:32:59;17.88;;;7.07;;
39728;SDS011;25402;42.004;23.088;2023-08-12T04:35:26;19.90;;;6.25;;
39728;SDS011;25402;42.004;23.088;2023-08-12T04:37:53;18.35;;;6.00;;
39728;SDS011;25402;42.004;23.088;2023-08-12T04:40:20;25.33;;;6.22;;
39728;SDS011;25402;42.004;23.088;2023-08-12T04:42:47;20.95;;;6.22;;
39728;SDS011;25402;42.004;23.088;2023-08-12T04:45:14;18.75;;;6.50;;
39728;SDS011;25402;42.004;23.088;2023-08-12T04:47:43;31.48;;;6.35;;
39728;SDS011;25402;42.004;23.088;2023-08-12T04:50:10;18.45;;;5.63;;
39728;SDS011;25402;42.004;23.088;2023-08-12T04:52:37;11.68;;;4.90;;
39728;SDS011;25402;42.004;23.088;2023-08-12T04:55:04;11.18;;;4.32;;
39728;SDS011;25402;42.004;23.088;2023-08-12T04:57:31;7.63;;;3.25;;
39728;SDS011;25402;42.004;23.088;2023-08-12T05:00:00;6.60;;;3.20;;
39728;SDS011;25402;42.004;23.088;2023-08-12T05:02:27;11.18;;;3.33;;
39728;SDS011;25402;42.004;23.088;2023-08-12T05:04:56;3.88;;;3.00;;
39728;SDS011;25402;42.004;23.088;2023-08-12T05:07:23;6.30;;;3.10;;
39728;SDS011;25402;42.004;23.088;2023-08-12T05:09:50;8.15;;;3.42;;
39728;SDS011;25402;42.004;23.088;2023-08-12T05:12:17;6.97;;;2.70;;
39728;SDS011;25402;42.004;23.088;2023-08-12T05:14:44;8.20;;;3.13;;
39728;SDS011;25402;42.004;23.088;2023-08-12T05:17:11;8.05;;;3.15;;
39728;SDS011;25402;42.004;23.088;2023-08-12T05:19:38;7.72;;;3.80;;
39728;SDS011;25402;42.004;23.088;2023-08-12T05:22:06;9.88;;;4.47;;
39728;SDS011;25402;42.004;23.088;2023-08-12T05:24:33;11.52;;;4.63;;
39728;SDS011;25402;42.004;23.088;2023-08-12T05:27:00;10.13;;;4.28;;
39728;SDS011;25402;42.004;23.088;2023-08-12T05:29:28;10.50;;;4.07;;
39728;SDS011;25402;42.004;23.088;2023-08-12T05:31:55;13.88;;;4.05;;
39728;SDS011;25402;42.004;23.088;2023-08-12T05:34:22;11.68;;;3.97;;
39728;SDS011;25402;42.004;23.088;2023-08-12T05:36:49;8.13;;;3.78;;
39728;SDS011;25402;42.004;23.088;2023-08-12T05:39:17;14.20;;;4.20;;
39728;SDS011;25402;42.004;23.088;2023-08-12T05:41:44;8.77;;;3.42;;
39728;SDS011;25402;42.004;23.088;2023-08-12T05:44:11;7.10;;;3.30;;
39728;SDS011;25402;42.004;23.088;2023-08-12T05:46:38;7.68;;;3.00;;
39728;SDS011;25402;42.004;23.088;2023-08-12T05:49:05;6.75;;;3.08;;
39728;SDS011;25402;42.004;23.088;2023-08-12T05:51:32;7.03;;;3.25;;
39728;SDS011;25402;42.004;23.088;2023-08-12T05:53:59;8.48;;;3.58;;
39728;SDS011;25402;42.004;23.088;2023-08-12T05:56:27;10.18;;;3.22;;
39728;SDS011;25402;42.004;23.088;2023-08-12T05:58:54;5.70;;;2.60;;
39728;SDS011;25402;42.004;23.088;2023-08-12T06:01:21;3.50;;;2.42;;
39728;SDS011;25402;42.004;23.088;2023-08-12T06:03:48;4.28;;;2.35;;
39728;SDS011;25402;42.004;23.088;2023-08-12T06:06:15;9.80;;;2.75;;
39728;SDS011;25402;42.004;23.088;2023-08-12T06:08:42;4.53;;;2.42;;
39728;SDS011;25402;42.004;23.088;2023-08-12T06:11:09;11.55;;;2.90;;
39728;SDS011;25402;42.004;23.088;2023-08-12T06:13:37;10.00;;;2.80;;
39728;SDS011;25402;42.004;23.088;2023-08-12T06:16:04;4.35;;;2.55;;
39728;SDS011;25402;42.004;23.088;2023-08-12T06:18:31;10.07;;;2.60;;
39728;SDS011;25402;42.004;23.088;2023-08-12T06:20:58;3.20;;;2.30;;
39728;SDS011;25402;42.004;23.088;2023-08-12T06:23:25;6.88;;;2.50;;
39728;SDS011;25402;42.004;23.088;2023-08-12T06:25:52;7.13;;;3.28;;
39728;SDS011;25402;42.004;23.088;2023-08-12T06:28:19;6.75;;;2.75;;
39728;SDS011;25402;42.004;23.088;2023-08-12T06:30:48;6.47;;;2.25;;
39728;SDS011;25402;42.004;23.088;2023-08-12T06:33:15;7.25;;;2.58;;
39728;SDS011;25402;42.004;23.088;2023-08-12T06:35:42;8.63;;;2.33;;
39728;SDS011;25402;42.004;23.088;2023-08-12T06:38:08;6.03;;;2.15;;
39728;SDS011;25402;42.004;23.088;2023-08-12T06:40:37;6.60;;;2.60;;
39728;SDS011;25402;42.004;23.088;2023-08-12T06:43:04;6.22;;;2.13;;
39728;SDS011;25402;42.004;23.088;2023-08-12T06:45:32;8.77;;;2.47;;
39728;SDS011;25402;42.004;23.088;2023-08-12T06:48:02;8.13;;;2.50;;
39728;SDS011;25402;42.004;23.088;2023-08-12T06:50:30;7.93;;;2.92;;
39728;SDS011;25402;42.004;23.088;2023-08-12T06:52:58;8.70;;;2.45;;
39728;SDS011;25402;42.004;23.088;2023-08-12T06:55:25;7.32;;;2.38;;
39728;SDS011;25402;42.004;23.088;2023-08-12T06:57:52;8.90;;;2.65;;
39728;SDS011;25402;42.004;23.088;2023-08-12T07:00:19;8.38;;;2.55;;
39728;SDS011;25402;42.004;23.088;2023-08-12T07:02:46;13.15;;;4.30;;
39728;SDS011;25402;42.004;23.088;2023-08-12T07:05:15;10.13;;;2.67;;
39728;SDS011;25402;42.004;23.088;2023-08-12T07:07:42;7.38;;;3.15;;
39728;SDS011;25402;42.004;23.088;2023-08-12T07:10:09;9.00;;;2.63;;
39728;SDS011;25402;42.004;23.088;2023-08-12T07:12:36;6.22;;;2.50;;
39728;SDS011;25402;42.004;23.088;2023-08-12T07:15:05;8.60;;;2.42;;
39728;SDS011;25402;42.004;23.088;2023-08-12T07:17:33;9.77;;;2.92;;
39728;SDS011;25402;42.004;23.088;2023-08-12T07:20:00;4.63;;;2.33;;
39728;SDS011;25402;42.004;23.088;2023-08-12T07:22:30;8.43;;;2.42;;
39728;SDS011;25402;42.004;23.088;2023-08-12T07:24:57;5.75;;;2.40;;
39728;SDS011;25402;42.004;23.088;2023-08-12T07:27:25;8.82;;;2.22;;
39728;SDS011;25402;42.004;23.088;2023-08-12T07:29:52;7.55;;;2.50;;
39728;SDS011;25402;42.004;23.088;2023-08-12T07:32:19;6.95;;;2.63;;
39728;SDS011;25402;42.004;23.088;2023-08-12T07:34:46;5.22;;;2.70;;
39728;SDS011;25402;42.004;23.088;2023-08-12T07:37:13;11.32;;;2.72;;
39728;SDS011;25402;42.004;23.088;2023-08-12T07:39:41;11.30;;;2.50;;
39728;SDS011;25402;42.004;23.088;2023-08-12T07:42:08;8.65;;;2.53;;
39728;SDS011;25402;42.004;23.088;2023-08-12T07:44:35;8.80;;;2.40;;
39728;SDS011;25402;42.004;23.088;2023-08-12T07:47:02;9.20;;;2.83;;
39728;SDS011;25402;42.004;23.088;2023-08-12T07:49:29;10.70;;;2.80;;
39728;SDS011;25402;42.004;23.088;2023-08-12T07:51:56;15.57;;;3.00;;
39728;SDS011;25402;42.004;23.088;2023-08-12T07:54:23;24.40;;;2.75;;
39728;SDS011;25402;42.004;23.088;2023-08-12T07:56:52;14.55;;;2.83;;
39728;SDS011;25402;42.004;23.088;2023-08-12T07:59:19;21.50;;;2.90;;
39728;SDS011;25402;42.004;23.088;2023-08-12T08:01:46;9.95;;;2.80;;
39728;SDS011;25402;42.004;23.088;2023-08-12T08:04:13;8.52;;;2.63;;
39728;SDS011;25402;42.004;23.088;2023-08-12T08:06:40;14.13;;;2.70;;
39728;SDS011;25402;42.004;23.088;2023-08-12T08:09:07;8.77;;;4.10;;
39728;SDS011;25402;42.004;23.088;2023-08-12T08:11:34;7.60;;;2.45;;
39728;SDS011;25402;42.004;23.088;2023-08-12T08:14:03;11.38;;;2.80;;
39728;SDS011;25402;42.004;23.088;2023-08-12T08:16:30;9.25;;;3.08;;
39728;SDS011;25402;42.004;23.088;2023-08-12T08:18:57;10.05;;;2.75;;
39728;SDS011;25402;42.004;23.088;2023-08-12T08:21:24;4.85;;;2.22;;
39728;SDS011;25402;42.004;23.088;2023-08-12T08:23:51;3.88;;;2.30;;
39728;SDS011;25402;42.004;23.088;2023-08-12T08:26:18;4.95;;;2.35;;
39728;SDS011;25402;42.004;23.088;2023-08-12T08:28:45;3.95;;;2.00;;
39728;SDS011;25402;42.004;23.088;2023-08-12T08:31:14;10.73;;;2.10;;
39728;SDS011;25402;42.004;23.088;2023-08-12T08:33:41;7.45;;;2.90;;
39728;SDS011;25402;42.004;23.088;2023-08-12T08:36:08;6.22;;;2.10;;
39728;SDS011;25402;42.004;23.088;2023-08-12T08:38:35;9.60;;;2.70;;
39728;SDS011;25402;42.004;23.088;2023-08-12T08:41:02;6.03;;;2.05;;
39728;SDS011;25402;42.004;23.088;2023-08-12T08:43:35;5.30;;;2.63;;
39728;SDS011;25402;42.004;23.088;2023-08-12T08:46:04;9.40;;;2.20;;
39728;SDS011;25402;42.004;23.088;2023-08-12T08:48:33;6.43;;;2.80;;
39728;SDS011;25402;42.004;23.088;2023-08-12T08:51:02;4.13;;;2.30;;
39728;SDS011;25402;42.004;23.088;2023-08-12T08:53:29;6.10;;;2.60;;
39728;SDS011;25402;42.004;23.088;2023-08-12T08:55:56;5.55;;;2.45;;
39728;SDS011;25402;42.004;23.088;2023-08-12T08:58:26;4.28;;;2.42;;
39728;SDS011;25402;42.004;23.088;2023-08-12T09:00:53;9.57;;;3.03;;
39728;SDS011;25402;42.004;23.088;2023-08-12T09:03:21;8.82;;;3.00;;
39728;SDS011;25402;42.004;23.088;2023-08-12T09:05:50;5.63;;;2.47;;
39728;SDS011;25402;42.004;23.088;2023-08-12T09:08:18;8.38;;;2.65;;
39728;SDS011;25402;42.004;23.088;2023-08-12T09:10:46;9.07;;;2.58;;
39728;SDS011;25402;42.004;23.088;2023-08-12T09:13:13;12.30;;;2.55;;
39728;SDS011;25402;42.004;23.088;2023-08-12T09:15:43;7.05;;;2.40;;
39728;SDS011;25402;42.004;23.088;2023-08-12T09:18:10;5.50;;;2.42;;
39728;SDS011;25402;42.004;23.088;2023-08-12T09:20:38;7.90;;;2.85;;
39728;SDS011;25402;42.004;23.088;2023-08-12T09:23:08;7.57;;;2.40;;
39728;SDS011;25402;42.004;23.088;2023-08-12T09:25:36;5.07;;;2.63;;
39728;SDS011;25402;42.004;23.088;2023-08-12T09:28:08;5.82;;;2.58;;
39728;SDS011;25402;42.004;23.088;2023-08-12T09:30:37;2.30;;;2.10;;
39728;SDS011;25402;42.004;23.088;2023-08-12T09:33:05;5.40;;;2.22;;
39728;SDS011;25402;42.004;23.088;2023-08-12T09:35:34;4.22;;;3.20;;
39728;SDS011;25402;42.004;23.088;2023-08-12T09:38:07;3.22;;;2.10;;
39728;SDS011;25402;42.004;23.088;2023-08-12T09:40:38;3.97;;;2.22;;
39728;SDS011;25402;42.004;23.088;2023-08-12T09:43:05;5.55;;;2.20;;
39728;SDS011;25402;42.004;23.088;2023-08-12T09:45:33;3.20;;;2.33;;
39728;SDS011;25402;42.004;23.088;2023-08-12T09:48:00;5.65;;;2.28;;
39728;SDS011;25402;42.004;23.088;2023-08-12T09:50:27;3.95;;;2.10;;
39728;SDS011;25402;42.004;23.088;2023-08-12T09:52:56;4.13;;;2.30;;
39728;SDS011;25402;42.004;23.088;2023-08-12T09:55:24;5.30;;;2.10;;
39728;SDS011;25402;42.004;23.088;2023-08-12T09:57:52;3.65;;;2.17;;
39728;SDS011;25402;42.004;23.088;2023-08-12T10:00:22;12.15;;;3.17;;
39728;SDS011;25402;42.004;23.088;2023-08-12T10:02:50;14.10;;;3.55;;
39728;SDS011;25402;42.004;23.088;2023-08-12T10:05:21;5.75;;;2.45;;
39728;SDS011;25402;42.004;23.088;2023-08-12T10:07:51;3.60;;;2.17;;
39728;SDS011;25402;42.004;23.088;2023-08-12T10:10:19;5.32;;;2.28;;
39728;SDS011;25402;42.004;23.088;2023-08-12T10:12:49;17.05;;;4.43;;
39728;SDS011;25402;42.004;23.088;2023-08-12T10:15:16;5.93;;;2.50;;
39728;SDS011;25402;42.004;23.088;2023-08-12T10:17:45;4.55;;;2.35;;
39728;SDS011;25402;42.004;23.088;2023-08-12T10:20:13;61.63;;;13.18;;
39728;SDS011;25402;42.004;23.088;2023-08-12T10:25:13;6.78;;;2.72;;
39728;SDS011;25402;42.004;23.088;2023-08-12T10:27:41;5.55;;;3.00;;
39728;SDS011;25402;42.004;23.088;2023-08-12T10:30:10;16.25;;;4.10;;
39728;SDS011;25402;42.004;23.088;2023-08-12T10:32:39;4.70;;;2.60;;
39728;SDS011;25402;42.004;23.088;2023-08-12T10:35:06;9.48;;;2.85;;
39728;SDS011;25402;42.004;23.088;2023-08-12T10:37:34;4.80;;;2.60;;
39728;SDS011;25402;42.004;23.088;2023-08-12T10:40:02;15.90;;;4.07;;
39728;SDS011;25402;42.004;23.088;2023-08-12T10:42:41;5.00;;;2.50;;
39728;SDS011;25402;42.004;23.088;2023-08-12T10:45:11;4.55;;;2.67;;
39728;SDS011;25402;42.004;23.088;2023-08-12T10:47:40;6.25;;;2.30;;
39728;SDS011;25402;42.004;23.088;2023-08-12T10:50:18;3.55;;;2.30;;
39728;SDS011;25402;42.004;23.088;2023-08-12T10:52:45;8.88;;;2.20;;
39728;SDS011;25402;42.004;23.088;2023-08-12T10:55:17;3.38;;;2.00;;
39728;SDS011;25402;42.004;23.088;2023-08-12T10:57:46;7.03;;;2.10;;
39728;SDS011;25402;42.004;23.088;2023-08-12T11:00:15;6.85;;;1.98;;
39728;SDS011;25402;42.004;23.088;2023-08-12T11:02:48;12.75;;;2.88;;
39728;SDS011;25402;42.004;23.088;2023-08-12T11:05:17;3.95;;;2.13;;
39728;SDS011;25402;42.004;23.088;2023-08-12T11:07:45;4.25;;;2.17;;
39728;SDS011;25402;42.004;23.088;2023-08-12T11:10:14;3.10;;;2.05;;
39728;SDS011;25402;42.004;23.088;2023-08-12T11:12:47;6.68;;;2.03;;
39728;SDS011;25402;42.004;23.088;2023-08-12T11:15:17;8.18;;;2.10;;
39728;SDS011;25402;42.004;23.088;2023-08-12T11:17:45;4.03;;;1.80;;
39728;SDS011;25402;42.004;23.088;2023-08-12T11:20:13;4.72;;;2.10;;
39728;SDS011;25402;42.004;23.088;2023-08-12T11:22:41;2.50;;;2.00;;
39728;SDS011;25402;42.004;23.088;2023-08-12T11:25:10;2.83;;;2.00;;
39728;SDS011;25402;42.004;23.088;2023-08-12T11:27:42;2.95;;;1.90;;
39728;SDS011;25402;42.004;23.088;2023-08-12T11:30:11;3.40;;;2.03;;
39728;SDS011;25402;42.004;23.088;2023-08-12T11:32:42;5.80;;;2.05;;
39728;SDS011;25402;42.004;23.088;2023-08-12T11:35:10;1.70;;;1.60;;
39728;SDS011;25402;42.004;23.088;2023-08-12T11:37:39;9.85;;;1.92;;
39728;SDS011;25402;42.004;23.088;2023-08-12T11:40:09;3.38;;;2.00;;
39728;SDS011;25402;42.004;23.088;2023-08-12T11:42:40;2.20;;;1.88;;
39728;SDS011;25402;42.004;23.088;2023-08-12T11:45:09;5.50;;;1.85;;
39728;SDS011;25402;42.004;23.088;2023-08-12T11:47:39;4.65;;;1.77;;
39728;SDS011;25402;42.004;23.088;2023-08-12T11:50:09;2.75;;;2.05;;
39728;SDS011;25402;42.004;23.088;2023-08-12T11:52:38;3.80;;;2.22;;
39728;SDS011;25402;42.004;23.088;2023-08-12T11:55:06;2.88;;;2.22;;
39728;SDS011;25402;42.004;23.088;2023-08-12T11:57:34;3.40;;;2.15;;
39728;SDS011;25402;42.004;23.088;2023-08-12T12:00:02;2.22;;;2.03;;
39728;SDS011;25402;42.004;23.088;2023-08-12T12:02:38;5.40;;;2.13;;
39728;SDS011;25402;42.004;23.088;2023-08-12T12:05:09;3.08;;;2.17;;
39728;SDS011;25402;42.004;23.088;2023-08-12T12:07:37;4.93;;;2.28;;
39728;SDS011;25402;42.004;23.088;2023-08-12T12:10:05;4.82;;;2.15;;
39728;SDS011;25402;42.004;23.088;2023-08-12T12:12:33;2.78;;;2.05;;
39728;SDS011;25402;42.004;23.088;2023-08-12T12:15:00;2.83;;;2.05;;
39728;SDS011;25402;42.004;23.088;2023-08-12T12:17:27;8.15;;;2.10;;
39728;SDS011;25402;42.004;23.088;2023-08-12T12:19:54;3.03;;;2.17;;
39728;SDS011;25402;42.004;23.088;2023-08-12T12:22:28;4.38;;;2.45;;
39728;SDS011;25402;42.004;23.088;2023-08-12T12:24:57;4.75;;;2.45;;
39728;SDS011;25402;42.004;23.088;2023-08-12T12:27:25;9.13;;;2.55;;
39728;SDS011;25402;42.004;23.088;2023-08-12T12:29:52;10.85;;;2.40;;
39728;SDS011;25402;42.004;23.088;2023-08-12T12:32:20;4.63;;;2.30;;
39728;SDS011;25402;42.004;23.088;2023-08-12T12:34:47;13.35;;;2.42;;
39728;SDS011;25402;42.004;23.088;2023-08-12T12:37:14;5.25;;;2.60;;
39728;SDS011;25402;42.004;23.088;2023-08-12T12:39:43;7.70;;;2.70;;
39728;SDS011;25402;42.004;23.088;2023-08-12T12:42:10;5.72;;;2.63;;
39728;SDS011;25402;42.004;23.088;2023-08-12T12:44:37;7.00;;;2.60;;
39728;SDS011;25402;42.004;23.088;2023-08-12T12:47:04;4.43;;;2.35;;
39728;SDS011;25402;42.004;23.088;2023-08-12T12:49:31;7.65;;;2.15;;
39728;SDS011;25402;42.004;23.088;2023-08-12T12:51:58;6.32;;;2.15;;
39728;SDS011;25402;42.004;23.088;2023-08-12T12:54:25;4.15;;;3.05;;
39728;SDS011;25402;42.004;23.088;2023-08-12T12:56:53;7.85;;;2.50;;
39728;SDS011;25402;42.004;23.088;2023-08-12T12:59:20;4.32;;;3.13;;
39728;SDS011;25402;42.004;23.088;2023-08-12T13:01:48;3.72;;;2.10;;
39728;SDS011;25402;42.004;23.088;2023-08-12T13:04:15;6.68;;;2.28;;
39728;SDS011;25402;42.004;23.088;2023-08-12T13:06:42;2.50;;;2.10;;
39728;SDS011;25402;42.004;23.088;2023-08-12T13:09:09;6.60;;;2.78;;
39728;SDS011;25402;42.004;23.088;2023-08-12T13:11:36;6.88;;;2.17;;
39728;SDS011;25402;42.004;23.088;2023-08-12T13:14:04;3.47;;;1.90;;
39728;SDS011;25402;42.004;23.088;2023-08-12T13:16:31;7.15;;;2.50;;
39728;SDS011;25402;42.004;23.088;2023-08-12T13:18:58;4.65;;;2.00;;
39728;SDS011;25402;42.004;23.088;2023-08-12T13:21:25;3.90;;;2.30;;
39728;SDS011;25402;42.004;23.088;2023-08-12T13:23:52;3.25;;;2.00;;
39728;SDS011;25402;42.004;23.088;2023-08-12T13:26:20;4.68;;;2.05;;
39728;SDS011;25402;42.004;23.088;2023-08-12T13:28:48;4.88;;;1.95;;
39728;SDS011;25402;42.004;23.088;2023-08-12T13:31:16;5.88;;;2.22;;
39728;SDS011;25402;42.004;23.088;2023-08-12T13:33:43;5.20;;;2.15;;
39728;SDS011;25402;42.004;23.088;2023-08-12T13:36:10;4.28;;;2.00;;
39728;SDS011;25402;42.004;23.088;2023-08-12T13:38:38;9.15;;;2.35;;
39728;SDS011;25402;42.004;23.088;2023-08-12T13:41:05;6.38;;;2.03;;
39728;SDS011;25402;42.004;23.088;2023-08-12T13:43:31;3.53;;;2.08;;
39728;SDS011;25402;42.004;23.088;2023-08-12T13:48:28;9.30;;;4.20;;
39728;SDS011;25402;42.004;23.088;2023-08-12T13:50:55;11.70;;;3.60;;
39728;SDS011;25402;42.004;23.088;2023-08-12T13:53:22;3.25;;;2.10;;
39728;SDS011;25402;42.004;23.088;2023-08-12T13:55:50;2.58;;;1.92;;
39728;SDS011;25402;42.004;23.088;2023-08-12T13:58:17;2.55;;;1.63;;
39728;SDS011;25402;42.004;23.088;2023-08-12T14:00:44;4.57;;;2.10;;
39728;SDS011;25402;42.004;23.088;2023-08-12T14:03:11;2.13;;;1.83;;
39728;SDS011;25402;42.004;23.088;2023-08-12T14:05:40;3.90;;;1.92;;
39728;SDS011;25402;42.004;23.088;2023-08-12T14:08:07;4.55;;;2.00;;
39728;SDS011;25402;42.004;23.088;2023-08-12T14:10:33;10.85;;;2.47;;
39728;SDS011;25402;42.004;23.088;2023-08-12T14:13:00;13.95;;;2.10;;
39728;SDS011;25402;42.004;23.088;2023-08-12T14:15:27;4.28;;;2.00;;
39728;SDS011;25402;42.004;23.088;2023-08-12T14:17:54;7.65;;;2.53;;
39728;SDS011;25402;42.004;23.088;2023-08-12T14:20:21;4.47;;;2.30;;
39728;SDS011;25402;42.004;23.088;2023-08-12T14:22:50;4.05;;;2.17;;
39728;SDS011;25402;42.004;23.088;2023-08-12T14:25:17;6.22;;;2.17;;
39728;SDS011;25402;42.004;23.088;2023-08-12T14:27:44;9.23;;;2.20;;
39728;SDS011;25402;42.004;23.088;2023-08-12T14:30:11;5.55;;;2.47;;
39728;SDS011;25402;42.004;23.088;2023-08-12T14:32:39;3.33;;;2.10;;
39728;SDS011;25402;42.004;23.088;2023-08-12T14:35:06;4.00;;;2.20;;
39728;SDS011;25402;42.004;23.088;2023-08-12T14:37:34;3.53;;;2.20;;
39728;SDS011;25402;42.004;23.088;2023-08-12T14:40:02;7.68;;;2.30;;
39728;SDS011;25402;42.004;23.088;2023-08-12T14:42:30;8.35;;;2.10;;